Lebanon Junction, Kentucky
Current Conditions -  °F | °C
As of 11:58 AM on Friday 24 Oct 2014 (Local Time) from KFTK Reporting Station
Overcast Overcast  
Wind Chill: 58°   Ceiling: 11000
Heat Index: 58°   Visibility: 10mi
Dew Point: 44°   Wind: 2mph
Humidity: 60%   Direction: 210°SSW
Pressure: 30.12"   Gusts: NA
Location:  37.83°N, 85.73°W
Report Text: KFTK 241558Z AUTO 21002KT 10SM OVC110 15/07 A3012 RMK AO2 SLP203 T01450068
Loading
Personal Weather Stations






























Interactive Weather Map
Tropical Storm Tracking
New forecast layout! Learn more

10-Day Weather Forecast

Advertisements
Track Severe Weather on mobile